Time;durP1;ratioP1;P1;durP2;ratioP2;P2;SDS_P1;SDS_P2;PMS_P1;PMS_P2;Temp;Humidity;BMP_temperature;BMP_pressure;BME280_temperature;BME280_humidity;BME280_pressure;Samples;Min_cycle;Max_cycle;Signal;HPM_P1;HPM_P2
2022/05/05 00:00:34;;;;;;;13.87;10.50;;;7.00;87.20;;;;;;4974010;28;20456;-76
2022/05/05 00:03:02;;;;;;;14.13;12.60;;;7.00;87.30;;;;;;4974120;28;20482;-77
2022/05/05 00:05:30;;;;;;;17.47;15.97;;;6.90;87.40;;;;;;4974081;28;20456;-76
2022/05/05 00:07:58;;;;;;;13.70;11.40;;;6.90;87.60;;;;;;4974253;28;20531;-76
2022/05/05 00:15:59;;;;;;;17.77;16.07;;;6.80;88.10;;;;;;4973871;28;20912;-76
2022/05/05 00:18:27;;;;;;;16.60;15.23;;;6.80;88.20;;;;;;4973137;28;20482;-76
2022/05/05 00:20:55;;;;;;;13.30;12.10;;;6.70;88.20;;;;;;4973863;28;20476;-76
2022/05/05 00:23:24;;;;;;;17.40;15.73;;;6.70;88.30;;;;;;4973790;28;20480;-76
2022/05/05 00:25:53;;;;;;;17.57;15.97;;;6.70;88.50;;;;;;4972551;28;20455;-76
2022/05/05 00:28:22;;;;;;;17.87;16.33;;;6.70;88.60;;;;;;4972573;28;20492;-76
2022/05/05 00:30:50;;;;;;;15.43;14.03;;;6.60;88.50;;;;;;4972366;28;20472;-76
2022/05/05 00:33:18;;;;;;;16.17;14.77;;;6.60;88.60;;;;;;4973505;28;20460;-76
2022/05/05 00:35:46;;;;;;;15.30;13.83;;;6.60;88.60;;;;;;4972567;28;20493;-76
2022/05/05 00:38:14;;;;;;;18.30;16.60;;;6.60;88.60;;;;;;4972308;28;20474;-76
2022/05/05 00:40:43;;;;;;;14.87;13.47;;;6.50;88.60;;;;;;4973774;28;20853;-76
2022/05/05 00:43:13;;;;;;;16.67;15.27;;;6.50;88.60;;;;;;4972306;28;20547;-76
2022/05/05 00:45:41;;;;;;;13.87;12.10;;;6.50;88.60;;;;;;4973915;28;20453;-76
2022/05/05 00:48:12;;;;;;;13.77;12.57;;;6.50;88.60;;;;;;4972284;28;20445;-76
2022/05/05 00:50:40;;;;;;;14.37;12.87;;;6.40;88.60;;;;;;4958690;28;20527;-76
2022/05/05 00:53:08;;;;;;;14.50;13.00;;;6.40;88.50;;;;;;4980685;28;20446;-77
2022/05/05 00:55:39;;;;;;;15.27;13.93;;;6.40;88.50;;;;;;4979103;28;20460;-76
2022/05/05 00:58:08;;;;;;;17.63;16.07;;;6.30;88.50;;;;;;4979310;28;20475;-76
2022/05/05 01:00:38;;;;;;;14.80;13.37;;;6.30;88.50;;;;;;4980016;28;20466;-76
2022/05/05 01:03:09;;;;;;;16.37;15.10;;;6.30;88.50;;;;;;4979263;28;20453;-76
2022/05/05 01:05:40;;;;;;;14.80;13.40;;;6.20;88.50;;;;;;4978918;28;20956;-76
2022/05/05 01:08:08;;;;;;;17.23;15.83;;;6.20;88.50;;;;;;4978122;28;20994;-77
2022/05/05 01:10:37;;;;;;;14.40;13.13;;;6.20;88.50;;;;;;4978522;28;20473;-76
2022/05/05 01:13:05;;;;;;;16.07;14.67;;;6.20;88.50;;;;;;4978182;28;20447;-77
2022/05/05 01:15:37;;;;;;;13.90;12.60;;;6.10;88.50;;;;;;4974989;28;20846;-76
2022/05/05 01:18:05;;;;;;;15.00;13.60;;;6.10;88.50;;;;;;4973095;28;20481;-76
2022/05/05 01:20:44;;;;;;;16.97;15.57;;;6.10;88.50;;;;;;4972486;28;20468;-77
2022/05/05 01:23:14;;;;;;;16.63;14.93;;;6.00;88.40;;;;;;4973875;28;20535;-77
2022/05/05 01:28:29;;;;;;;13.43;12.23;;;6.00;88.50;;;;;;4972310;28;20443;-76
2022/05/05 01:30:57;;;;;;;15.80;14.40;;;5.90;88.30;;;;;;4971781;28;20500;-76
2022/05/05 01:33:30;;;;;;;16.47;15.07;;;5.90;88.30;;;;;;4971579;28;20473;-77
2022/05/05 01:35:59;;;;;;;13.77;12.37;;;5.90;88.40;;;;;;4972823;28;20432;-76
2022/05/05 01:38:36;;;;;;;14.43;13.00;;;5.80;88.30;;;;;;4971449;28;20843;-76
2022/05/05 01:41:06;;;;;;;15.00;13.70;;;5.80;88.30;;;;;;4971284;28;20493;-76
2022/05/05 01:43:35;;;;;;;17.73;16.13;;;5.80;88.30;;;;;;4972797;28;20515;-76
2022/05/05 01:46:03;;;;;;;13.80;12.10;;;5.70;88.20;;;;;;4972615;28;20528;-76
2022/05/05 01:48:32;;;;;;;14.67;13.00;;;5.70;88.30;;;;;;4971314;28;20438;-76
2022/05/05 01:51:01;;;;;;;12.70;11.40;;;5.70;88.30;;;;;;4971217;28;20830;-76
2022/05/05 01:53:36;;;;;;;14.20;12.70;;;5.70;88.40;;;;;;4971244;28;20458;-76
2022/05/05 01:56:06;;;;;;;19.50;17.87;;;5.60;88.40;;;;;;4972526;28;20914;-76
2022/05/05 01:58:34;;;;;;;13.73;12.33;;;5.60;88.40;;;;;;4972710;28;20919;-76
2022/05/05 02:01:03;;;;;;;13.93;12.53;;;5.60;88.50;;;;;;4972303;28;20469;-76
2022/05/05 02:03:31;;;;;;;14.40;12.93;;;5.60;88.50;;;;;;4971041;28;20894;-76
2022/05/05 02:05:59;;;;;;;14.13;12.73;;;5.50;88.50;;;;;;4972266;28;21033;-76
2022/05/05 02:08:27;;;;;;;12.97;11.33;;;5.50;88.50;;;;;;4972375;28;20469;-76
2022/05/05 02:10:57;;;;;;;19.83;18.17;;;5.50;88.50;;;;;;4970894;28;20470;-76
2022/05/05 02:13:25;;;;;;;17.37;14.00;;;5.50;88.60;;;;;;4970367;28;20489;-76
2022/05/05 02:15:53;;;;;;;13.67;12.27;;;5.50;88.70;;;;;;4970928;28;20448;-76
2022/05/05 02:18:21;;;;;;;21.17;19.27;;;5.40;88.60;;;;;;4972005;28;20519;-76
2022/05/05 02:20:50;;;;;;;14.50;13.10;;;5.40;88.70;;;;;;4970698;28;20557;-76
2022/05/05 02:23:18;;;;;;;19.37;17.47;;;5.40;88.80;;;;;;4970739;28;21026;-76
2022/05/05 02:25:46;;;;;;;13.90;12.50;;;5.40;88.90;;;;;;4970864;28;20457;-76
2022/05/05 02:28:16;;;;;;;17.20;11.60;;;5.30;88.90;;;;;;4970858;28;20446;-76
2022/05/05 02:30:44;;;;;;;14.83;13.53;;;5.30;88.90;;;;;;4971910;28;20564;-76
2022/05/05 02:33:12;;;;;;;14.83;13.00;;;5.30;88.90;;;;;;4970535;28;20459;-76
2022/05/05 02:35:40;;;;;;;14.57;13.10;;;5.30;89.00;;;;;;4972281;28;20515;-76
2022/05/05 02:40:54;;;;;;;14.67;13.27;;;5.20;89.10;;;;;;4971935;28;20472;-76
2022/05/05 02:43:24;;;;;;;14.40;12.90;;;5.20;89.10;;;;;;4970586;28;20458;-76
2022/05/05 02:45:52;;;;;;;14.97;12.60;;;5.20;89.20;;;;;;4970593;28;20548;-76
2022/05/05 02:48:20;;;;;;;14.10;12.63;;;5.20;89.20;;;;;;4970511;28;20541;-76
2022/05/05 02:50:48;;;;;;;15.37;13.90;;;5.20;89.90;;;;;;4970426;28;20551;-76
2022/05/05 02:56:02;;;;;;;14.40;13.00;;;5.10;89.30;;;;;;4970506;28;20438;-75
2022/05/05 02:58:31;;;;;;;20.70;19.10;;;5.10;89.40;;;;;;4970403;28;20476;-76
2022/05/05 03:00:59;;;;;;;20.97;19.10;;;5.10;89.50;;;;;;4971577;28;20485;-77
2022/05/05 03:03:28;;;;;;;16.30;14.60;;;5.10;89.50;;;;;;4970693;28;20853;-76
2022/05/05 03:05:56;;;;;;;22.80;21.10;;;5.10;89.60;;;;;;4971708;28;20540;-76
2022/05/05 03:08:24;;;;;;;19.43;17.83;;;5.00;89.60;;;;;;4970293;28;20493;-76
2022/05/05 03:10:52;;;;;;;15.67;14.10;;;5.00;89.70;;;;;;4971347;28;20485;-76
2022/05/05 03:13:21;;;;;;;15.90;14.40;;;5.00;89.70;;;;;;4971458;28;20450;-75
2022/05/05 03:15:50;;;;;;;16.43;14.63;;;5.00;89.70;;;;;;4970204;28;20450;-76
2022/05/05 03:18:18;;;;;;;17.83;16.23;;;5.00;89.80;;;;;;4971328;28;20495;-76
2022/05/05 03:20:46;;;;;;;18.40;16.53;;;5.00;89.80;;;;;;4970059;28;20504;-76
2022/05/05 03:23:15;;;;;;;20.83;18.73;;;4.90;89.80;;;;;;4970079;28;20453;-76
2022/05/05 03:25:43;;;;;;;23.73;20.93;;;4.90;90.20;;;;;;4974299;28;20473;-76
2022/05/05 03:28:11;;;;;;;20.03;16.93;;;4.90;89.90;;;;;;4973469;28;20457;-76
2022/05/05 03:30:40;;;;;;;19.60;17.43;;;4.90;89.90;;;;;;4973384;28;20467;-76
2022/05/05 03:33:10;;;;;;;24.50;22.60;;;4.90;90.00;;;;;;4973278;28;20561;-76
2022/05/05 03:35:38;;;;;;;17.03;15.40;;;4.80;89.90;;;;;;4974623;28;20449;-76
2022/05/05 03:38:06;;;;;;;15.77;14.20;;;4.80;89.90;;;;;;4973361;28;20457;-76
2022/05/05 03:40:35;;;;;;;15.73;14.23;;;4.80;89.90;;;;;;4974375;28;20986;-76
2022/05/05 03:43:04;;;;;;;16.80;15.10;;;4.80;90.00;;;;;;4973251;28;20452;-76
2022/05/05 03:45:32;;;;;;;20.30;18.50;;;4.80;90.00;;;;;;4973139;28;20557;-76
2022/05/05 03:48:00;;;;;;;15.57;14.07;;;4.70;90.00;;;;;;4973154;28;20823;-76
2022/05/05 03:50:30;;;;;;;19.77;17.63;;;4.70;90.00;;;;;;4973023;28;20469;-76
2022/05/05 03:52:58;;;;;;;19.53;17.73;;;4.70;90.00;;;;;;4974916;28;20437;-76
2022/05/05 03:55:28;;;;;;;18.70;17.03;;;4.70;90.00;;;;;;4973153;28;20450;-76
2022/05/05 03:57:56;;;;;;;20.27;18.40;;;4.70;90.10;;;;;;4973298;28;20456;-76
2022/05/05 04:00:25;;;;;;;19.40;17.50;;;4.70;90.10;;;;;;4972862;28;20821;-76
2022/05/05 04:05:36;;;;;;;19.10;17.13;;;4.70;90.10;;;;;;4973860;28;20450;-76
2022/05/05 04:08:06;;;;;;;19.70;17.73;;;4.70;90.20;;;;;;4974317;28;20438;-76
2022/05/05 04:10:34;;;;;;;26.10;24.10;;;4.60;90.10;;;;;;4973887;28;20552;-76
2022/05/05 04:13:02;;;;;;;24.47;22.43;;;4.70;90.20;;;;;;4972633;28;20994;-76
2022/05/05 04:15:31;;;;;;;21.07;19.07;;;4.70;90.20;;;;;;4973912;28;20970;-76
2022/05/05 04:17:59;;;;;;;21.13;19.20;;;4.70;90.30;;;;;;4972856;28;20819;-76
2022/05/05 04:20:28;;;;;;;19.53;17.83;;;4.60;90.20;;;;;;4973994;28;20487;-76
2022/05/05 04:22:58;;;;;;;19.63;17.83;;;4.70;90.30;;;;;;4974093;28;20507;-77
2022/05/05 04:25:26;;;;;;;18.90;16.47;;;4.70;90.30;;;;;;4972602;28;20462;-76
2022/05/05 04:27:54;;;;;;;20.37;18.43;;;4.70;90.30;;;;;;4972508;28;20544;-76
2022/05/05 04:30:22;;;;;;;27.87;25.77;;;4.70;90.40;;;;;;4972474;28;20599;-76
2022/05/05 04:32:52;;;;;;;19.53;17.73;;;4.70;90.40;;;;;;4973825;28;20450;-76
2022/05/05 04:35:20;;;;;;;19.97;16.83;;;4.70;90.50;;;;;;4972003;28;20528;-76
2022/05/05 04:37:49;;;;;;;18.30;15.63;;;4.70;90.50;;;;;;4972436;28;20511;-76
2022/05/05 04:40:18;;;;;;;18.13;15.73;;;4.70;90.50;;;;;;4973783;28;20473;-76
2022/05/05 04:42:47;;;;;;;19.13;16.97;;;4.70;90.60;;;;;;4972332;28;20550;-76
2022/05/05 04:45:15;;;;;;;16.37;14.33;;;4.70;90.60;;;;;;4973720;28;20995;-76
2022/05/05 04:47:43;;;;;;;22.67;15.50;;;4.80;90.70;;;;;;4972206;28;20946;-76
2022/05/05 04:50:12;;;;;;;16.37;14.37;;;4.70;90.70;;;;;;4972125;28;20470;-76
2022/05/05 04:52:40;;;;;;;19.13;15.60;;;4.80;90.80;;;;;;4973409;28;20935;-76
2022/05/05 04:55:09;;;;;;;18.03;14.70;;;4.80;90.80;;;;;;4972246;28;20553;-76
2022/05/05 04:57:38;;;;;;;23.20;17.40;;;4.90;90.90;;;;;;4973556;28;20445;-76
2022/05/05 05:00:08;;;;;;;18.27;15.50;;;4.80;90.90;;;;;;4973394;28;20478;-76
2022/05/05 05:02:36;;;;;;;18.33;16.40;;;4.90;91.00;;;;;;4973171;28;20444;-76
2022/05/05 05:05:06;;;;;;;20.27;16.03;;;4.90;91.10;;;;;;4972107;28;20947;-76
2022/05/05 05:07:34;;;;;;;19.93;17.77;;;5.00;91.20;;;;;;4971980;28;20481;-76
2022/05/05 05:10:03;;;;;;;22.23;19.93;;;5.00;91.30;;;;;;4971842;28;20988;-76
2022/05/05 05:12:31;;;;;;;27.43;22.97;;;5.00;91.30;;;;;;4973048;28;20552;-77
2022/05/05 05:15:01;;;;;;;31.20;28.27;;;5.10;91.50;;;;;;4973422;28;20540;-76
2022/05/05 05:17:29;;;;;;;30.37;27.77;;;5.10;91.60;;;;;;4971857;28;20481;-75
2022/05/05 05:19:57;;;;;;;33.50;30.70;;;5.20;91.80;;;;;;4972911;28;20527;-76
2022/05/05 05:22:25;;;;;;;34.37;31.23;;;5.20;91.90;;;;;;4973549;28;20437;-76
2022/05/05 05:24:53;;;;;;;34.23;31.23;;;5.30;92.10;;;;;;4971680;28;20488;-76
2022/05/05 05:27:22;;;;;;;45.33;42.27;;;5.30;92.20;;;;;;4972886;28;20943;-76
2022/05/05 05:29:50;;;;;;;35.20;32.50;;;5.40;92.30;;;;;;4971478;28;20462;-76
2022/05/05 05:32:20;;;;;;;40.03;37.03;;;5.50;92.50;;;;;;4971664;28;20531;-76
2022/05/05 05:34:48;;;;;;;50.97;47.50;;;5.50;92.60;;;;;;4971427;28;20518;-76
2022/05/05 05:37:16;;;;;;;46.00;42.97;;;5.70;93.10;;;;;;4972311;28;20452;-76
2022/05/05 05:39:44;;;;;;;51.03;47.63;;;5.70;93.00;;;;;;4971328;28;20890;-76
2022/05/05 05:42:12;;;;;;;56.17;52.70;;;5.90;93.20;;;;;;4971393;28;20546;-76
2022/05/05 05:44:42;;;;;;;33.10;30.47;;;6.00;93.40;;;;;;4971834;28;20483;-76
2022/05/05 05:47:12;;;;;;;51.30;48.07;;;6.20;93.70;;;;;;4970504;28;20549;-77
2022/05/05 05:49:42;;;;;;;23.27;21.17;;;6.40;93.90;;;;;;4971416;28;20481;-78
2022/05/05 05:52:10;;;;;;;22.00;19.70;;;6.60;94.20;;;;;;4971539;28;20460;-77
2022/05/05 05:54:38;;;;;;;21.13;19.00;;;6.80;94.40;;;;;;4972571;28;20441;-77
2022/05/05 05:57:06;;;;;;;20.90;18.70;;;7.00;94.60;;;;;;4972500;28;20503;-76
2022/05/05 05:59:35;;;;;;;21.40;17.73;;;7.10;94.70;;;;;;4971115;28;20477;-76
2022/05/05 06:04:50;;;;;;;20.13;17.33;;;7.40;94.90;;;;;;4971245;28;20459;-76
2022/05/05 06:07:19;;;;;;;21.70;17.27;;;7.50;95.00;;;;;;4971137;28;20824;-76
2022/05/05 06:09:47;;;;;;;20.30;17.53;;;7.60;95.00;;;;;;4970948;28;21020;-76
2022/05/05 06:12:15;;;;;;;17.73;15.50;;;7.80;95.20;;;;;;4972216;28;21012;-76
2022/05/05 06:14:44;;;;;;;18.30;14.10;;;8.00;95.20;;;;;;4972172;28;20434;-79
2022/05/05 06:17:12;;;;;;;15.70;14.07;;;8.10;95.30;;;;;;4972310;28;20448;-76
2022/05/05 06:19:41;;;;;;;16.87;13.70;;;8.20;95.20;;;;;;4970861;28;20462;-76
2022/05/05 06:22:11;;;;;;;15.07;13.37;;;8.30;95.20;;;;;;4970870;28;20474;-76
2022/05/05 06:24:39;;;;;;;16.67;13.30;;;8.40;95.10;;;;;;4970782;28;20488;-76
2022/05/05 06:27:07;;;;;;;14.47;12.67;;;8.40;95.10;;;;;;4970789;28;20977;-76
2022/05/05 06:29:35;;;;;;;16.40;13.30;;;8.50;95.00;;;;;;4970723;28;20477;-77
2022/05/05 06:32:04;;;;;;;14.07;12.33;;;8.60;95.00;;;;;;4972208;28;20539;-77
2022/05/05 06:34:33;;;;;;;14.97;12.57;;;8.60;94.90;;;;;;4971894;28;20464;-76
2022/05/05 06:37:01;;;;;;;16.53;12.70;;;8.70;94.90;;;;;;4972081;28;20524;-76
2022/05/05 06:39:31;;;;;;;16.00;12.70;;;8.80;94.80;;;;;;4970540;28;21081;-76
2022/05/05 06:42:00;;;;;;;14.47;12.00;;;8.80;94.80;;;;;;4972105;28;20474;-77
2022/05/05 06:44:29;;;;;;;16.33;12.80;;;8.90;94.80;;;;;;4970646;28;20487;-77
2022/05/05 06:46:58;;;;;;;16.73;11.37;;;9.00;94.70;;;;;;4971754;28;20495;-76
2022/05/05 06:49:26;;;;;;;14.37;11.57;;;9.00;94.60;;;;;;4970476;28;20458;-77
2022/05/05 06:51:54;;;;;;;14.73;12.87;;;9.10;94.60;;;;;;4970415;28;20865;-77
2022/05/05 06:54:27;;;;;;;13.30;11.30;;;9.20;94.60;;;;;;4970483;28;20850;-77
2022/05/05 06:56:57;;;;;;;15.60;11.67;;;9.30;94.60;;;;;;4970830;28;21033;-77
2022/05/05 06:59:25;;;;;;;15.77;11.37;;;9.40;94.60;;;;;;4973539;28;21010;-77
2022/05/05 07:01:53;;;;;;;18.43;14.30;;;9.50;94.50;;;;;;4976028;28;20492;-77
2022/05/05 07:07:14;;;;;;;12.57;11.27;;;9.80;94.50;;;;;;4974445;28;20449;-77
2022/05/05 07:12:32;;;;;;;16.20;10.37;;;10.00;93.90;;;;;;4986984;28;20473;-77
2022/05/05 07:15:00;;;;;;;12.93;10.40;;;10.10;93.80;;;;;;4985724;28;20483;-78
2022/05/05 07:17:28;;;;;;;12.70;8.70;;;10.30;93.70;;;;;;4987403;28;20453;-77
2022/05/05 07:19:57;;;;;;;13.43;8.60;;;10.40;93.60;;;;;;4981187;28;20477;-76
2022/05/05 07:22:25;;;;;;;11.70;7.80;;;10.50;93.40;;;;;;4980423;28;20545;-77
2022/05/05 07:24:53;;;;;;;11.73;8.00;;;10.60;93.20;;;;;;4985476;28;20488;-78
2022/05/05 07:27:22;;;;;;;13.50;8.53;;;10.60;93.00;;;;;;4985713;28;20449;-77
2022/05/05 07:29:51;;;;;;;12.00;9.30;;;10.70;92.90;;;;;;4985649;28;20469;-78
2022/05/05 07:32:20;;;;;;;16.43;10.40;;;10.80;92.90;;;;;;4988313;28;20461;-77
2022/05/05 07:34:48;;;;;;;13.70;9.50;;;10.90;93.00;;;;;;4985114;28;20453;-77
2022/05/05 07:37:16;;;;;;;12.47;8.37;;;11.00;93.00;;;;;;4985253;28;20511;-77
2022/05/05 07:39:45;;;;;;;10.77;7.93;;;11.10;92.90;;;;;;4983669;28;20507;-78
2022/05/05 07:42:13;;;;;;;11.90;7.20;;;11.20;92.80;;;;;;4975210;28;20527;-78
2022/05/05 07:44:41;;;;;;;8.83;6.20;;;11.20;92.70;;;;;;4974198;28;20449;-78
2022/05/05 07:47:11;;;;;;;9.57;5.63;;;11.30;92.50;;;;;;4975460;28;20453;-78
2022/05/05 07:49:39;;;;;;;11.20;5.60;;;11.40;92.40;;;;;;4975716;28;20462;-77
2022/05/05 07:52:07;;;;;;;16.10;8.30;;;11.50;92.40;;;;;;4976275;28;20449;-78
2022/05/05 07:54:38;;;;;;;10.40;6.60;;;11.50;92.30;;;;;;4973872;28;20457;-77
2022/05/05 07:57:08;;;;;;;9.90;5.53;;;11.60;92.30;;;;;;4975396;28;20499;-78
2022/05/05 07:59:36;;;;;;;11.73;5.90;;;11.70;92.30;;;;;;4973676;28;20476;-77
2022/05/05 08:02:09;;;;;;;12.83;5.40;;;11.80;92.30;;;;;;4973946;28;20505;-78
2022/05/05 08:04:39;;;;;;;10.30;5.90;;;11.90;92.20;;;;;;4973664;28;20445;-77
2022/05/05 08:07:07;;;;;;;12.37;6.63;;;11.90;92.00;;;;;;4989888;28;20488;-78
2022/05/05 08:09:36;;;;;;;10.50;4.67;;;11.90;91.80;;;;;;4974186;28;20486;-77
2022/05/05 08:12:24;;;;;;;10.00;4.77;;;12.00;91.80;;;;;;4973453;28;20442;-78
2022/05/05 08:14:52;;;;;;;8.00;4.90;;;12.10;91.80;;;;;;4973488;28;20986;-77
2022/05/05 08:17:20;;;;;;;8.57;3.77;;;12.10;91.60;;;;;;4973736;28;20977;-78
2022/05/05 08:19:50;;;;;;;8.33;4.30;;;12.20;91.50;;;;;;4975196;28;20461;-78
2022/05/05 08:22:19;;;;;;;7.60;4.30;;;12.20;91.40;;;;;;4973542;28;20474;-77
2022/05/05 08:30:19;;;;;;;7.57;4.60;;;12.40;91.10;;;;;;4989660;28;20535;-78
2022/05/05 08:32:47;;;;;;;10.27;4.60;;;12.50;91.10;;;;;;4973626;28;20537;-78
2022/05/05 08:35:17;;;;;;;9.67;4.70;;;12.50;90.90;;;;;;4973554;28;20460;-78
2022/05/05 08:37:45;;;;;;;8.93;4.23;;;12.60;90.90;;;;;;4973261;28;20462;-77
2022/05/05 08:40:14;;;;;;;10.70;4.77;;;12.80;90.90;;;;;;4973043;28;20541;-78
2022/05/05 08:42:42;;;;;;;14.13;5.17;;;12.80;90.80;;;;;;4973084;28;20919;-78
2022/05/05 08:45:11;;;;;;;10.43;5.10;;;12.90;90.80;;;;;;4974996;28;20478;-78
2022/05/05 08:47:41;;;;;;;10.23;4.50;;;13.00;90.80;;;;;;4989528;28;20485;-78
2022/05/05 08:50:11;;;;;;;8.87;5.60;;;13.20;90.70;;;;;;4989369;28;20493;-78
2022/05/05 08:52:48;;;;;;;12.30;5.13;;;13.30;90.40;;;;;;4974579;28;20969;-78
2022/05/05 08:55:18;;;;;;;10.30;5.47;;;13.40;90.40;;;;;;4974855;28;20418;-78
2022/05/05 08:57:47;;;;;;;9.30;5.17;;;13.50;90.50;;;;;;4973254;28;20454;-78
2022/05/05 09:00:17;;;;;;;10.93;6.00;;;13.70;90.50;;;;;;4973175;28;20512;-78
2022/05/05 09:02:45;;;;;;;11.17;5.73;;;13.90;90.30;;;;;;4974892;28;20651;-78
2022/05/05 09:05:14;;;;;;;9.77;5.30;;;14.00;90.20;;;;;;4975168;28;20468;-78
2022/05/05 09:07:52;;;;;;;8.70;5.20;;;14.10;90.20;;;;;;4975097;28;20549;-78
2022/05/05 09:10:21;;;;;;;10.43;5.10;;;14.30;90.10;;;;;;4975102;28;20465;-78
2022/05/05 09:13:00;;;;;;;9.70;5.60;;;14.40;90.10;;;;;;4974000;28;20885;-78
2022/05/05 09:15:33;;;;;;;10.20;6.10;;;14.60;90.00;;;;;;4974211;28;20491;-78
2022/05/05 09:18:12;;;;;;;9.70;5.43;;;14.70;89.90;;;;;;4973788;28;20457;-78
2022/05/05 09:20:42;;;;;;;12.67;5.43;;;14.90;89.60;;;;;;4975236;28;20472;-78
2022/05/05 09:23:31;;;;;;;9.90;4.80;;;15.00;89.30;;;;;;4975148;28;20955;-78
2022/05/05 09:26:00;;;;;;;10.10;5.00;;;15.10;88.20;;;;;;4975318;28;20887;-78
2022/05/05 09:28:31;;;;;;;11.00;5.73;;;15.20;88.00;;;;;;4973793;28;20442;-78
2022/05/05 09:31:05;;;;;;;10.30;4.80;;;15.20;87.50;;;;;;4975635;28;20469;-78
2022/05/05 09:33:39;;;;;;;8.50;4.53;;;15.30;87.40;;;;;;4973586;28;20470;-78
2022/05/05 09:36:09;;;;;;;9.57;4.80;;;15.40;86.90;;;;;;4974023;28;20419;-78
2022/05/05 09:38:51;;;;;;;8.87;4.90;;;15.50;87.00;;;;;;4973688;28;20565;-78
2022/05/05 09:41:19;;;;;;;9.43;4.27;;;15.70;85.90;;;;;;4975247;28;20440;-78
2022/05/05 09:43:48;;;;;;;7.40;4.07;;;15.70;85.60;;;;;;4973293;28;20476;-78
2022/05/05 09:46:36;;;;;;;7.90;4.30;;;15.80;85.60;;;;;;4977884;28;20416;-78
2022/05/05 09:49:15;;;;;;;9.27;4.20;;;15.90;85.50;;;;;;4977596;28;20477;-79
2022/05/05 09:51:45;;;;;;;8.93;4.50;;;16.00;84.70;;;;;;4977258;28;20407;-78
2022/05/05 09:59:51;;;;;;;9.40;4.47;;;16.20;83.80;;;;;;4990078;28;20534;-78
2022/05/05 10:05:12;;;;;;;9.70;4.60;;;16.50;83.70;;;;;;4989731;28;20826;-78
2022/05/05 10:07:45;;;;;;;8.73;4.50;;;16.60;83.40;;;;;;4973652;28;20463;-78
2022/05/05 10:10:17;;;;;;;9.70;4.80;;;16.70;82.40;;;;;;4974897;28;20458;-79
2022/05/05 10:12:47;;;;;;;7.47;4.73;;;16.80;81.60;;;;;;4973896;28;20442;-78
2022/05/05 10:15:16;;;;;;;8.13;4.13;;;16.80;81.60;;;;;;4973773;28;20538;-79
2022/05/05 10:17:46;;;;;;;8.50;5.30;;;16.80;81.60;;;;;;4973711;28;20440;-79
2022/05/05 10:20:14;;;;;;;7.90;4.60;;;16.90;81.20;;;;;;4973848;28;20839;-79
2022/05/05 10:22:52;;;;;;;9.90;5.43;;;16.90;81.40;;;;;;4973500;28;20456;-79
2022/05/05 10:25:26;;;;;;;7.70;4.70;;;17.00;81.20;;;;;;4975328;28;20421;-79
2022/05/05 10:27:55;;;;;;;11.77;5.10;;;17.20;81.40;;;;;;4990205;28;20420;-79
2022/05/05 10:30:35;;;;;;;7.53;4.60;;;17.30;81.50;;;;;;4973983;28;20591;-79
2022/05/05 10:33:05;;;;;;;9.33;6.33;;;17.50;81.10;;;;;;4989275;28;20537;-79
2022/05/05 10:35:47;;;;;;;8.93;5.50;;;17.50;80.90;;;;;;4973429;28;20438;-79
2022/05/05 10:38:41;;;;;;;9.90;6.20;;;17.60;80.60;;;;;;4974916;28;20435;-79
2022/05/05 10:41:39;;;;;;;13.33;5.97;;;17.60;80.70;;;;;;4975114;28;20408;-79
2022/05/05 10:44:24;;;;;;;8.70;5.73;;;17.70;80.80;;;;;;4967457;28;20475;-79
2022/05/05 10:47:01;;;;;;;9.50;5.30;;;17.80;80.70;;;;;;4973510;28;20549;-79
2022/05/05 10:49:47;;;;;;;10.80;5.87;;;17.90;80.50;;;;;;4977683;28;20834;-79
2022/05/05 10:52:31;;;;;;;7.90;5.40;;;17.90;80.20;;;;;;4973904;28;20450;-79
2022/05/05 10:55:26;;;;;;;8.53;5.80;;;18.00;79.90;;;;;;4973857;28;20449;-79
2022/05/05 10:58:54;;;;;;;11.17;5.83;;;18.00;79.60;;;;;;4973575;28;20816;-79
2022/05/05 11:01:22;;;;;;;10.47;6.67;;;18.00;79.30;;;;;;4972899;28;20461;-77
2022/05/05 11:04:39;;;;;;;8.20;5.20;;;18.00;79.50;;;;;;4972966;28;21059;-78
2022/05/05 11:07:31;;;;;;;8.83;5.03;;;18.10;79.60;;;;;;4898527;29;20455;-78
2022/05/05 11:10:00;;;;;;;9.23;5.83;;;18.20;79.70;;;;;;4966332;28;20551;-78
2022/05/05 11:12:34;;;;;;;9.70;5.97;;;18.30;79.50;;;;;;4988524;28;21054;-78
2022/05/05 11:23:40;;;;;;;9.77;4.80;;;18.50;78.30;;;;;;4966077;28;20516;-79
2022/05/05 11:26:10;;;;;;;7.33;4.60;;;18.50;77.60;;;;;;4974603;28;20446;-78
2022/05/05 11:28:38;;;;;;;10.37;6.03;;;18.40;77.30;;;;;;4972804;28;20808;-78
2022/05/05 11:31:19;;;;;;;9.77;4.87;;;18.40;77.30;;;;;;4972498;28;20834;-78
2022/05/05 11:33:52;;;;;;;7.83;4.53;;;18.50;77.00;;;;;;4973479;28;20873;-78
2022/05/05 11:36:21;;;;;;;8.43;4.73;;;18.50;77.20;;;;;;4971424;28;20544;-78
2022/05/05 11:38:49;;;;;;;8.13;5.83;;;18.60;77.00;;;;;;4971287;28;20457;-78
2022/05/05 11:41:19;;;;;;;7.40;4.70;;;18.60;76.50;;;;;;4971503;28;20959;-78
2022/05/05 11:46:38;;;;;;;8.27;4.60;;;18.70;77.00;;;;;;4991579;28;20851;-77
2022/05/05 11:49:08;;;;;;;7.80;4.73;;;18.70;76.80;;;;;;4974653;28;20474;-77
2022/05/05 11:51:37;;;;;;;9.10;4.90;;;18.80;76.70;;;;;;4974339;28;20450;-77
2022/05/05 11:54:08;;;;;;;7.90;4.70;;;18.80;76.10;;;;;;4973924;28;20457;-77
2022/05/05 11:56:38;;;;;;;8.10;4.13;;;18.80;75.80;;;;;;4990068;28;20980;-77
2022/05/05 12:01:54;;;;;;;7.93;3.30;;;18.90;75.70;;;;;;4953828;28;20461;-77
2022/05/05 12:04:23;;;;;;;8.00;3.40;;;18.80;75.00;;;;;;4975017;28;20469;-77
2022/05/05 12:06:51;;;;;;;7.00;3.70;;;18.80;74.90;;;;;;4973411;28;20824;-77
2022/05/05 12:09:21;;;;;;;8.77;3.63;;;18.80;74.40;;;;;;4990019;28;20899;-77
2022/05/05 12:11:50;;;;;;;7.03;3.40;;;18.80;74.60;;;;;;4975359;28;20453;-77
2022/05/05 12:14:22;;;;;;;6.10;3.10;;;18.80;74.60;;;;;;4973947;28;20457;-78
2022/05/05 12:16:52;;;;;;;7.57;3.13;;;18.90;74.50;;;;;;4973739;28;20480;-77
2022/05/05 12:19:26;;;;;;;7.07;3.60;;;18.90;74.10;;;;;;4973071;28;21021;-77
2022/05/05 12:22:14;;;;;;;8.23;3.23;;;18.90;74.10;;;;;;4973042;28;20456;-77
2022/05/05 12:24:46;;;;;;;9.90;3.50;;;18.90;73.80;;;;;;4973722;28;20996;-77
2022/05/05 12:27:15;;;;;;;7.50;2.80;;;18.90;73.70;;;;;;4972651;28;20445;-77
2022/05/05 12:29:45;;;;;;;6.30;2.77;;;19.00;73.30;;;;;;4974101;28;20466;-77
2022/05/05 12:32:15;;;;;;;7.67;2.93;;;18.90;72.70;;;;;;4972492;28;20496;-76
2022/05/05 12:34:45;;;;;;;6.90;2.80;;;18.90;72.20;;;;;;4973513;28;21020;-77
2022/05/05 12:37:19;;;;;;;6.00;3.00;;;18.90;71.90;;;;;;4972428;28;20529;-77
2022/05/05 12:39:52;;;;;;;5.63;2.30;;;19.00;72.10;;;;;;4972465;28;20478;-77
2022/05/05 12:42:21;;;;;;;7.23;2.40;;;19.00;71.60;;;;;;4988567;28;20502;-77
2022/05/05 12:44:51;;;;;;;5.37;1.90;;;18.90;71.50;;;;;;4972186;28;20478;-77
2022/05/05 12:47:27;;;;;;;6.80;2.20;;;18.90;71.20;;;;;;4972605;28;20524;-77
2022/05/05 12:49:58;;;;;;;5.77;2.10;;;19.00;70.90;;;;;;4973434;28;20477;-77
2022/05/05 13:00:53;;;;;;;6.60;2.50;;;19.10;70.20;;;;;;4988993;28;20469;-77
2022/05/05 13:03:41;;;;;;;5.00;2.20;;;19.10;70.10;;;;;;4972466;28;20461;-77
2022/05/05 13:06:12;;;;;;;6.43;1.93;;;19.20;69.60;;;;;;4988858;28;20446;-77
2022/05/05 13:08:51;;;;;;;4.60;1.70;;;19.20;69.30;;;;;;4972544;28;20503;-77
2022/05/05 13:11:19;;;;;;;8.73;2.03;;;19.30;69.60;;;;;;4972700;28;20553;-77
2022/05/05 13:13:48;;;;;;;5.27;1.73;;;19.30;68.90;;;;;;4974091;28;20469;-77
2022/05/05 13:16:20;;;;;;;4.70;1.20;;;19.30;67.70;;;;;;4972744;28;20532;-77
2022/05/05 13:18:49;;;;;;;9.60;1.87;;;19.30;67.90;;;;;;4973787;28;20445;-78
2022/05/05 13:21:18;;;;;;;5.20;2.00;;;19.20;67.30;;;;;;4972488;28;20463;-77
2022/05/05 13:23:46;;;;;;;4.70;1.60;;;19.20;67.40;;;;;;4988268;28;20477;-77
2022/05/05 13:26:14;;;;;;;4.93;1.37;;;19.20;67.40;;;;;;4972780;28;20456;-77
2022/05/05 13:28:42;;;;;;;5.13;1.13;;;19.30;67.10;;;;;;4973399;28;20855;-77
2022/05/05 13:31:11;;;;;;;4.30;1.20;;;19.30;66.80;;;;;;4971674;28;20450;-77
2022/05/05 13:33:39;;;;;;;7.80;1.67;;;19.30;66.60;;;;;;4971521;28;20478;-77
2022/05/05 13:36:07;;;;;;;4.77;1.30;;;19.30;66.30;;;;;;4971582;28;20454;-77
2022/05/05 13:38:37;;;;;;;4.93;1.30;;;19.30;66.20;;;;;;4973265;28;20456;-77
2022/05/05 13:41:25;;;;;;;3.93;0.83;;;19.40;65.80;;;;;;4972277;28;20567;-77
2022/05/05 13:43:53;;;;;;;5.07;1.50;;;19.40;65.70;;;;;;4973129;28;20452;-77
2022/05/05 13:46:21;;;;;;;5.10;1.50;;;19.40;65.60;;;;;;4971829;28;20814;-77
2022/05/05 13:48:50;;;;;;;5.43;1.30;;;19.40;65.60;;;;;;4971566;28;20460;-77
2022/05/05 13:51:18;;;;;;;5.40;1.43;;;19.40;65.60;;;;;;4971451;28;20446;-77
2022/05/05 13:53:48;;;;;;;4.77;1.50;;;19.50;65.70;;;;;;4972812;28;20495;-77
2022/05/05 13:56:16;;;;;;;4.67;2.07;;;19.50;65.60;;;;;;4971330;28;20456;-77
2022/05/05 13:58:44;;;;;;;4.40;1.57;;;19.50;65.80;;;;;;4972846;28;20450;-77